Time;durP1;ratioP1;P1;durP2;ratioP2;P2;SDS_P1;SDS_P2;PMS_P1;PMS_P2;Temp;Humidity;BMP_temperature;BMP_pressure;BME280_temperature;BME280_humidity;BME280_pressure;Samples;Min_cycle;Max_cycle;Signal;HPM_P1;HPM_P2
2022/08/12 00:44:24;;;;;;;4.05;1.65;;;;;;;24.04;32.77;100381.31;10341796;28;20136;-57
2022/08/12 00:49:27;;;;;;;5.35;1.98;;;;;;;24.02;32.79;100384.22;10380688;28;20045;-56
2022/08/12 00:54:29;;;;;;;;;;;;;;;23.98;32.92;100385.69;10381926;28;20780;-56
2022/08/12 00:59:32;;;;;;;;;;;;;;;23.98;33.00;100391.13;10375453;28;19956;-56
2022/08/12 01:15:30;;;;;;;2.63;1.52;;;;;;;23.89;33.16;100389.66;10383618;28;20311;-55
2022/08/12 01:20:42;;;;;;;2.75;1.55;;;;;;;23.88;33.83;100399.66;10350014;28;20192;-57
2022/08/12 01:25:46;;;;;;;5.47;1.73;;;;;;;23.79;33.54;100403.59;10374203;28;20252;-53
2022/08/12 01:31:00;;;;;;;2.55;1.63;;;;;;;23.81;33.51;100401.53;10373999;28;20763;-57
2022/08/12 01:36:08;;;;;;;3.67;2.00;;;;;;;23.70;33.75;100397.53;10376877;28;20716;-54
2022/08/12 01:41:12;;;;;;;2.20;1.63;;;;;;;23.58;33.73;100396.47;10371089;28;20049;-57
2022/08/12 01:46:36;;;;;;;6.05;1.95;;;;;;;23.42;33.87;100398.53;10377023;28;20167;-55
2022/08/12 01:51:41;;;;;;;;;;;;;;;23.34;34.08;100403.28;10333676;28;20144;-57
2022/08/12 01:57:10;;;;;;;3.58;1.67;;;;;;;23.25;34.23;100398.03;10365489;28;20303;-57
2022/08/12 02:02:18;;;;;;;4.38;1.88;;;;;;;23.21;34.29;100385.91;10378879;28;20855;-57
2022/08/12 02:13:15;;;;;;;2.92;1.65;;;;;;;23.12;34.67;100384.44;10333179;28;20341;-56
2022/08/12 02:19:05;;;;;;;3.35;2.20;;;;;;;23.03;34.70;100382.88;10373503;28;20053;-55
2022/08/12 02:24:26;;;;;;;3.35;1.70;;;;;;;22.92;34.88;100382.44;10357138;28;20045;-52
2022/08/12 02:29:29;;;;;;;2.97;1.75;;;;;;;22.94;34.83;100391.22;10369224;28;20041;-57
2022/08/12 02:34:32;;;;;;;4.28;2.03;;;;;;;22.94;34.89;100374.91;10366653;28;20464;-55
2022/08/12 02:39:36;;;;;;;2.20;1.80;;;;;;;22.97;35.24;100378.25;10370739;28;20181;-55
2022/08/12 02:44:40;;;;;;;2.75;1.95;;;;;;;22.86;35.14;100372.38;10376987;28;20053;-55
2022/08/12 02:49:49;;;;;;;4.60;1.73;;;;;;;22.85;35.44;100373.44;10375109;28;20053;-56
2022/08/12 02:54:55;;;;;;;7.45;2.05;;;;;;;22.80;35.24;100373.16;10373397;28;20578;-56
2022/08/12 03:00:02;;;;;;;5.07;1.85;;;;;;;22.73;35.50;100366.91;10374317;28;20241;-53
2022/08/12 03:05:04;;;;;;;2.88;1.90;;;;;;;22.67;35.58;100378.53;10372101;28;20061;-56
2022/08/12 03:10:08;;;;;;;4.05;1.88;;;;;;;22.65;35.95;100386.88;10374026;28;20171;-54
2022/08/12 03:15:23;;;;;;;3.13;1.52;;;;;;;22.63;35.76;100388.13;10373193;28;20187;-57
2022/08/12 03:20:24;;;;;;;4.97;2.15;;;;;;;22.58;35.98;100389.56;10374265;28;20064;-57
2022/08/12 03:25:30;;;;;;;2.92;1.60;;;;;;;22.60;35.98;100395.59;10368259;23;20052;-54
2022/08/12 03:30:32;;;;;;;3.50;2.10;;;;;;;22.62;36.09;100394.56;10378090;28;20045;-52
2022/08/12 03:35:34;;;;;;;3.88;2.17;;;;;;;22.64;36.07;100384.34;10327633;28;21018;-55
2022/08/12 04:02:27;;;;;;;4.13;1.88;;;;;;;22.33;36.51;100410.84;10333468;28;20192;-54
2022/08/12 04:07:30;;;;;;;6.68;1.75;;;;;;;22.40;36.96;100406.34;10339616;28;20503;-53
2022/08/12 04:17:52;;;;;;;3.35;1.90;;;;;;;22.65;37.69;100418.59;10339286;28;20129;-53
2022/08/12 04:23:11;;;;;;;5.07;2.28;;;;;;;22.69;37.75;100414.44;10342583;28;21064;-53
2022/08/12 04:28:26;;;;;;;2.72;1.83;;;;;;;22.65;38.23;100408.56;10343761;28;20045;-53
2022/08/12 04:33:28;;;;;;;5.13;1.95;;;;;;;22.58;38.32;100408.53;10346255;28;20188;-53
2022/08/12 04:38:29;;;;;;;3.38;1.77;;;;;;;22.58;38.14;100413.97;10347331;28;20157;-53
2022/08/12 04:43:31;;;;;;;3.22;2.00;;;;;;;22.58;38.33;100418.56;10345497;28;20595;-54
2022/08/12 04:48:53;;;;;;;4.15;2.10;;;;;;;22.62;38.14;100419.00;10338635;28;20057;-53
2022/08/12 04:53:54;;;;;;;4.40;2.33;;;;;;;22.59;37.12;100415.66;10313307;28;20057;-68
2022/08/12 04:58:58;;;;;;;5.05;1.83;;;;;;;22.45;37.21;100419.28;10332092;28;20252;-69
2022/08/12 05:04:01;;;;;;;3.17;1.70;;;;;;;22.42;37.19;100416.97;10329982;28;20045;-69
2022/08/12 05:09:02;;;;;;;;;;;;;;;22.34;37.68;100425.25;10328069;28;20519;-69
2022/08/12 05:14:13;;;;;;;2.53;1.85;;;;;;;22.28;37.44;100428.72;10329703;28;20079;-70
2022/08/12 05:19:15;;;;;;;2.70;1.90;;;;;;;22.21;38.40;100426.78;10330537;28;20527;-67
2022/08/12 05:24:23;;;;;;;2.38;1.95;;;;;;;22.29;38.43;100435.81;10326466;28;20053;-67
2022/08/12 05:29:24;;;;;;;2.53;2.00;;;;;;;22.32;37.96;100430.03;10328343;28;20098;-69
2022/08/12 05:34:47;;;;;;;3.28;2.17;;;;;;;22.35;38.91;100444.06;10327470;28;20064;-70
2022/08/12 05:39:49;;;;;;;5.43;2.13;;;;;;;22.42;38.07;100438.69;10338873;28;20187;-70
2022/08/12 05:44:50;;;;;;;2.78;1.80;;;;;;;22.45;38.25;100443.69;10327112;28;20084;-68
2022/08/12 05:49:52;;;;;;;2.53;2.00;;;;;;;22.52;38.23;100441.88;10324158;28;20060;-66
2022/08/12 05:54:53;;;;;;;3.15;1.83;;;;;;;22.67;38.02;100451.78;10328520;28;20080;-67
2022/08/12 05:59:58;;;;;;;2.22;1.83;;;;;;;22.74;37.92;100445.38;10326750;28;20147;-67
2022/08/12 06:05:00;;;;;;;5.13;1.85;;;;;;;22.88;37.53;100456.28;10327133;28;20124;-67
2022/08/12 06:10:02;;;;;;;2.08;1.58;;;;;;;23.00;36.84;100459.28;10328714;28;20054;-67
2022/08/12 06:15:04;;;;;;;2.13;1.88;;;;;;;23.16;37.77;100453.56;10323251;28;20069;-69
2022/08/12 06:20:12;;;;;;;1.75;1.55;;;;;;;23.28;37.31;100460.13;10320776;28;20057;-67
2022/08/12 06:25:30;;;;;;;2.63;1.48;;;;;;;23.41;36.52;100453.06;10323338;28;20045;-67
2022/08/12 06:30:34;;;;;;;2.33;1.75;;;;;;;23.59;36.81;100453.31;10325883;28;20053;-70
2022/08/12 06:35:43;;;;;;;1.92;1.58;;;;;;;23.77;35.86;100460.88;10322984;28;20053;-67
2022/08/12 06:46:15;;;;;;;4.78;2.25;;;;;;;23.99;35.29;100455.34;10324351;28;20782;-69
2022/08/12 06:51:19;;;;;;;4.38;1.42;;;;;;;24.07;35.16;100459.72;10324573;28;20085;-68
2022/08/12 06:56:22;;;;;;;3.97;1.70;;;;;;;24.05;35.11;100446.34;10320984;28;20197;-68
2022/08/12 07:01:43;;;;;;;2.67;1.67;;;;;;;24.30;35.22;100459.31;10319599;28;20046;-69
2022/08/12 07:06:54;;;;;;;5.05;1.63;;;;;;;24.51;35.15;100450.09;10329092;28;20115;-69
2022/08/12 07:11:56;;;;;;;2.75;1.60;;;;;;;24.62;34.84;100463.09;10321256;28;20065;-68
2022/08/12 07:17:01;;;;;;;2.67;1.52;;;;;;;24.81;34.41;100457.81;10322572;28;20196;-68
2022/08/12 07:22:05;;;;;;;2.50;1.17;;;;;;;24.84;33.79;100460.13;10321440;28;20597;-70
2022/08/12 07:27:06;;;;;;;5.47;1.63;;;;;;;24.88;33.89;100455.94;10325625;28;20081;-69
2022/08/12 07:32:08;;;;;;;3.17;1.38;;;;;;;25.03;33.83;100459.25;10326859;28;20060;-68
2022/08/12 07:37:09;;;;;;;2.45;1.20;;;;;;;25.37;33.58;100460.00;10322423;28;20659;-68
2022/08/12 07:42:11;;;;;;;5.28;2.08;;;;;;;25.73;32.73;100460.41;10325214;28;20091;-68
2022/08/12 07:47:12;;;;;;;3.63;1.45;;;;;;;25.79;32.93;100456.00;10328636;28;20049;-68
2022/08/12 07:52:15;;;;;;;1.63;1.15;;;;;;;26.01;32.00;100454.63;10319489;28;20060;-68
2022/08/12 07:57:17;;;;;;;4.68;1.50;;;;;;;26.44;31.83;100453.03;10324582;28;20179;-69
2022/08/12 08:02:18;;;;;;;4.18;1.40;;;;;;;26.78;30.56;100451.69;10325281;28;20246;-72
2022/08/12 08:07:28;;;;;;;2.53;1.40;;;;;;;26.73;30.44;100451.50;10330537;28;20081;-69
2022/08/12 08:18:01;;;;;;;2.72;1.45;;;;;;;27.08;29.82;100442.75;10327478;28;20767;-69
2022/08/12 08:23:06;;;;;;;2.05;0.95;;;;;;;27.44;29.42;100438.34;10330116;28;20053;-69
2022/08/12 08:28:11;;;;;;;2.95;1.30;;;;;;;27.73;29.39;100419.41;10330910;28;20045;-67
2022/08/12 08:33:14;;;;;;;3.22;1.10;;;;;;;27.87;28.53;100423.59;10327959;28;20742;-71
2022/08/12 08:38:35;;;;;;;1.67;1.00;;;;;;;28.18;27.95;100424.41;10333532;28;20566;-67
2022/08/12 08:43:36;;;;;;;2.60;1.08;;;;;;;28.42;27.98;100418.09;10334296;28;20497;-70
2022/08/12 08:48:45;;;;;;;4.70;1.27;;;;;;;28.42;26.58;100418.97;10329335;28;20415;-70
2022/08/12 08:53:46;;;;;;;2.57;1.30;;;;;;;28.54;26.96;100410.75;10319248;28;20132;-70
2022/08/12 08:58:53;;;;;;;1.92;1.08;;;;;;;28.80;26.54;100400.38;10319521;28;20064;-70
2022/08/12 09:03:54;;;;;;;3.13;0.90;;;;;;;28.96;26.44;100401.53;10320174;28;20168;-70
2022/08/12 09:09:16;;;;;;;2.10;1.20;;;;;;;29.14;25.35;100393.16;10321145;28;20057;-69
2022/08/12 09:14:18;;;;;;;1.48;0.80;;;;;;;29.60;24.43;100395.94;10319821;28;20148;-70
2022/08/12 09:19:29;;;;;;;5.10;1.27;;;;;;;29.38;24.85;100384.84;10320681;28;20108;-70
2022/08/12 09:24:34;;;;;;;1.08;0.80;;;;;;;29.82;23.61;100387.88;10324159;28;20042;-71
2022/08/12 09:29:36;;;;;;;1.33;0.93;;;;;;;29.93;24.15;100395.19;10320550;28;20058;-71
2022/08/12 09:34:57;;;;;;;3.40;0.80;;;;;;;30.28;23.56;100391.34;10322983;28;20554;-72
2022/08/12 09:39:59;;;;;;;1.90;0.80;;;;;;;30.38;24.11;100387.91;10322031;28;20103;-71
2022/08/12 09:45:21;;;;;;;2.50;0.83;;;;;;;31.04;23.61;100381.72;10304826;28;20053;-70
2022/08/12 09:50:25;;;;;;;2.83;1.00;;;;;;;31.18;22.12;100377.50;10321029;28;20164;-68
2022/08/12 09:55:26;;;;;;;2.67;1.02;;;;;;;31.24;22.65;100370.09;10316313;28;20056;-71
2022/08/12 10:00:48;;;;;;;2.77;1.10;;;;;;;31.32;22.91;100355.91;10326397;28;20297;-70
2022/08/12 10:05:54;;;;;;;3.60;1.25;;;;;;;31.80;22.02;100355.25;10291483;28;20519;-69
2022/08/12 10:16:56;;;;;;;1.67;0.80;;;;;;;32.49;22.70;100334.25;10322334;28;20535;-71
2022/08/12 10:21:58;;;;;;;2.40;1.10;;;;;;;32.89;21.33;100330.06;10322231;28;20056;-72
2022/08/12 10:32:23;;;;;;;5.07;0.90;;;;;;;35.82;18.31;100323.00;10326395;28;20049;-70
2022/08/12 10:37:45;;;;;;;2.10;0.77;;;;;;;39.19;15.80;100307.94;10327277;28;21660;-70
2022/08/12 10:48:28;;;;;;;2.40;0.55;;;;;;;36.40;17.19;100295.25;10318175;28;20146;-68
2022/08/12 10:53:35;;;;;;;1.55;0.80;;;;;;;35.99;17.59;100294.91;10322832;28;20344;-72
2022/08/12 10:58:48;;;;;;;1.15;0.50;;;;;;;35.83;17.86;100281.19;10323800;28;20130;-70
2022/08/12 11:03:50;;;;;;;2.85;0.68;;;;;;;35.71;16.61;100283.50;10324777;28;20049;-70
2022/08/12 11:09:20;;;;;;;2.35;1.20;;;;;;;35.92;16.93;100284.16;10323832;28;20054;-70
2022/08/12 11:14:41;;;;;;;3.88;0.60;;;;;;;36.74;15.94;100282.38;10325941;28;20144;-71
2022/08/12 11:19:51;;;;;;;2.63;0.57;;;;;;;37.77;16.23;100275.25;10324673;28;20054;-70
2022/08/12 11:24:52;;;;;;;1.67;0.68;;;;;;;38.40;15.88;100262.66;10320661;28;20106;-70
2022/08/12 11:29:55;;;;;;;0.93;0.40;;;;;;;38.19;14.68;100259.47;10327796;28;20510;-71
2022/08/12 11:35:08;;;;;;;2.08;0.55;;;;;;;38.19;14.93;100254.75;10331729;28;20053;-71
2022/08/12 11:40:12;;;;;;;2.80;0.60;;;;;;;38.22;14.78;100247.72;10332749;28;20126;-71
2022/08/12 11:45:13;;;;;;;1.73;0.50;;;;;;;37.45;14.72;100244.41;10352131;28;20321;-71
2022/08/12 11:50:19;;;;;;;2.15;0.60;;;;;;;37.21;15.72;100236.19;10334743;28;20784;-70
2022/08/12 11:55:20;;;;;;;1.67;0.40;;;;;;;37.13;15.42;100234.13;10336129;28;20111;-69
2022/08/12 12:00:23;;;;;;;2.95;0.63;;;;;;;36.79;15.15;100221.31;10329942;28;20277;-68
2022/08/12 12:05:45;;;;;;;0.90;0.50;;;;;;;36.15;14.88;100223.50;10328299;28;20053;-70
2022/08/12 12:10:49;;;;;;;2.60;0.70;;;;;;;35.49;16.53;100215.63;10327812;28;20076;-70
2022/08/12 12:15:51;;;;;;;1.77;0.50;;;;;;;35.68;15.70;100212.94;10326367;28;20049;-70
2022/08/12 12:20:56;;;;;;;1.25;0.60;;;;;;;35.96;15.34;100213.22;10325817;28;20049;-70
2022/08/12 12:25:57;;;;;;;1.25;0.50;;;;;;;35.98;16.03;100199.88;10328175;28;20087;-71
2022/08/12 12:31:08;;;;;;;1.70;0.50;;;;;;;35.47;16.06;100206.78;10326226;28;20062;-71
2022/08/12 12:36:30;;;;;;;1.88;0.40;;;;;;;35.10;16.02;100191.59;10333506;28;20045;-72
2022/08/12 12:41:34;;;;;;;1.02;0.47;;;;;;;34.76;16.34;100186.03;10337778;28;20050;-70
2022/08/12 12:46:55;;;;;;;1.02;0.45;;;;;;;34.86;16.65;100184.03;10341265;28;20057;-70
2022/08/12 12:51:56;;;;;;;2.13;0.85;;;;;;;35.01;16.73;100171.19;10325561;28;20057;-70
2022/08/12 12:57:18;;;;;;;5.88;0.57;;;;;;;35.25;17.32;100170.44;10327841;28;20360;-70
2022/08/12 13:02:39;;;;;;;1.50;0.60;;;;;;;35.07;16.17;100164.53;10322654;28;20046;-70
2022/08/12 13:07:41;;;;;;;2.47;0.55;;;;;;;34.44;16.98;100166.03;10335718;28;20476;-70
2022/08/12 13:12:55;;;;;;;3.72;0.60;;;;;;;34.67;17.07;100158.16;10331380;28;20053;-69
2022/08/12 13:18:03;;;;;;;0.95;0.60;;;;;;;34.42;17.26;100145.34;10332660;28;20492;-71
2022/08/12 13:23:07;;;;;;;2.13;0.50;;;;;;;34.33;17.44;100140.38;10319315;28;20050;-70
2022/08/12 13:28:30;;;;;;;2.85;0.75;;;;;;;34.32;17.83;100138.75;10330042;28;20416;-69
2022/08/12 13:33:32;;;;;;;4.78;1.00;;;;;;;33.62;18.45;100130.44;10322129;28;20131;-70
2022/08/12 13:38:54;;;;;;;3.40;1.25;;;;;;;33.23;18.58;100129.13;10333936;28;20060;-71
2022/08/12 13:43:55;;;;;;;3.83;1.40;;;;;;;33.30;18.91;100137.16;10320224;28;20195;-68
2022/08/12 13:49:01;;;;;;;2.20;1.13;;;;;;;33.47;18.88;100129.38;10325370;28;20053;-68
2022/08/12 13:54:03;;;;;;;0.88;0.77;;;;;;;32.99;18.57;100130.81;10322524;28;20107;-69
2022/08/12 13:59:12;;;;;;;2.78;1.20;;;;;;;32.29;19.30;100126.53;10325242;28;20065;-70
2022/08/12 14:04:14;;;;;;;2.53;1.48;;;;;;;32.48;19.53;100124.09;10323415;28;20041;-69
2022/08/12 14:09:18;;;;;;;1.20;0.75;;;;;;;32.76;19.33;100114.53;10325256;28;20042;-70
2022/08/12 14:14:20;;;;;;;1.35;0.77;;;;;;;32.59;19.35;100113.91;10323656;28;20049;-69
2022/08/12 14:19:24;;;;;;;1.40;0.90;;;;;;;32.01;19.41;100120.38;10323114;28;20118;-68
2022/08/12 14:24:35;;;;;;;2.58;0.90;;;;;;;31.97;20.00;100113.75;10328695;28;20053;-69
2022/08/12 14:29:40;;;;;;;2.95;0.80;;;;;;;32.20;19.69;100106.13;10321994;28;21188;-70
2022/08/12 14:35:05;;;;;;;;;;;;;;;32.30;19.27;100111.69;10330130;28;20092;-68
2022/08/12 14:40:10;;;;;;;3.38;1.05;;;;;;;32.16;19.21;100110.53;10322473;28;19932;-69
2022/08/12 14:45:19;;;;;;;1.92;0.65;;;;;;;32.01;19.27;100105.78;10327311;28;20128;-69
2022/08/12 14:50:23;;;;;;;3.67;0.82;;;;;;;31.70;19.97;100109.22;10324994;28;20050;-69
2022/08/12 14:55:48;;;;;;;1.70;0.80;;;;;;;31.62;19.53;100104.25;10325127;28;20053;-69
2022/08/12 15:06:31;;;;;;;4.07;2.63;;;;;;;31.57;19.38;100098.69;10329227;28;20140;-70
2022/08/12 15:11:53;;;;;;;3.58;1.95;;;;;;;31.37;19.39;100085.66;10325249;28;20065;-68
2022/08/12 15:17:05;;;;;;;3.58;1.77;;;;;;;31.49;19.45;100091.75;10332745;28;20057;-69
2022/08/12 15:27:42;;;;;;;3.28;1.65;;;;;;;31.41;19.63;100088.69;10165267;28;20945;-68
2022/08/12 15:33:07;;;;;;;2.70;0.90;;;;;;;31.20;19.46;100094.91;10185466;28;20453;-68
2022/08/12 15:38:18;;;;;;;;;;;;;;;31.17;20.06;100095.44;10181975;28;20043;-68
2022/08/12 15:43:29;;;;;;;1.40;0.77;;;;;;;31.42;19.60;100087.59;10080413;28;19942;-68
2022/08/12 15:48:50;;;;;;;2.85;1.10;;;;;;;31.48;19.84;100083.78;10190068;28;20086;-70
2022/08/12 15:54:04;;;;;;;1.70;1.00;;;;;;;31.54;19.42;100082.72;10203141;28;20145;-69
2022/08/12 15:59:26;;;;;;;2.22;0.70;;;;;;;31.36;19.64;100086.72;10211294;28;20061;-70
2022/08/12 16:04:49;;;;;;;3.42;0.60;;;;;;;31.21;19.51;100090.22;10205143;28;20055;-69
2022/08/12 16:09:50;;;;;;;2.17;0.80;;;;;;;31.10;19.75;100091.25;10207052;28;20047;-68
2022/08/12 16:15:12;;;;;;;2.17;0.80;;;;;;;30.91;19.96;100090.78;10210466;28;20055;-69
2022/08/12 16:20:22;;;;;;;5.13;1.05;;;;;;;30.88;20.40;100086.66;10219700;28;20046;-68
2022/08/12 16:25:34;;;;;;;3.22;1.30;;;;;;;30.85;20.70;100081.69;10216644;28;20042;-69
2022/08/12 16:30:55;;;;;;;1.17;0.73;;;;;;;30.85;20.68;100070.69;10213303;28;20059;-69
2022/08/12 16:35:56;;;;;;;2.38;0.70;;;;;;;30.58;20.54;100066.09;10213915;28;20197;-69
2022/08/12 16:41:00;;;;;;;4.65;1.08;;;;;;;30.27;20.84;100057.53;10215802;28;21363;-69
2022/08/12 16:46:03;;;;;;;1.23;0.70;;;;;;;30.12;20.96;100071.09;10213813;28;20081;-69
2022/08/12 16:51:25;;;;;;;2.00;0.45;;;;;;;29.90;21.33;100052.72;10213495;28;20070;-69
2022/08/12 16:56:26;;;;;;;3.40;0.80;;;;;;;29.80;21.52;100058.09;10213718;28;20126;-68
2022/08/12 17:01:33;;;;;;;3.58;1.08;;;;;;;29.66;21.34;100054.88;10215973;28;20411;-68
2022/08/12 17:06:42;;;;;;;2.13;1.85;;;;;;;29.72;22.00;100064.00;10199068;28;20058;-69
2022/08/12 17:11:44;;;;;;;18.85;15.93;;;;;;;29.85;21.41;100065.59;10213640;28;20054;-70
2022/08/12 17:16:51;;;;;;;15.07;13.50;;;;;;;30.01;21.46;100050.97;10197608;28;20046;-68
2022/08/12 17:21:53;;;;;;;2.67;2.17;;;;;;;30.03;21.61;100050.69;10211595;28;20058;-70
2022/08/12 17:27:06;;;;;;;6.03;5.53;;;;;;;30.00;21.65;100045.72;10212051;28;20861;-69
2022/08/12 17:32:19;;;;;;;3.05;1.70;;;;;;;29.98;21.52;100056.94;10220268;28;20046;-69
2022/08/12 17:37:28;;;;;;;3.83;1.77;;;;;;;29.71;21.41;100057.72;10214185;28;20054;-71
2022/08/12 17:42:30;;;;;;;4.23;2.20;;;;;;;29.46;21.74;100055.47;10217320;28;20095;-69
2022/08/12 17:47:36;;;;;;;2.20;0.90;;;;;;;29.27;22.13;100063.13;10215910;28;20133;-69
2022/08/12 17:52:37;;;;;;;4.22;0.80;;;;;;;29.11;22.26;100070.28;10208106;28;20069;-68
2022/08/12 17:57:42;;;;;;;2.85;1.90;;;;;;;28.97;22.70;100066.22;10214668;28;21016;-69
2022/08/12 18:02:47;;;;;;;3.67;1.40;;;;;;;28.79;22.81;100072.78;10209603;28;20061;-69
2022/08/12 18:07:53;;;;;;;3.58;0.80;;;;;;;28.68;22.96;100074.53;10209259;28;20388;-74
2022/08/12 18:13:00;;;;;;;3.47;1.50;;;;;;;28.56;22.94;100080.03;10212112;28;20149;-72
2022/08/12 18:18:03;;;;;;;1.73;0.68;;;;;;;28.48;23.11;100081.28;10218698;28;20505;-74
2022/08/12 18:23:06;;;;;;;2.95;1.73;;;;;;;28.42;23.11;100086.91;10219495;28;20858;-72
2022/08/12 18:28:08;;;;;;;5.20;3.80;;;;;;;28.25;23.56;100079.47;10213597;28;20124;-69
2022/08/12 18:33:23;;;;;;;4.63;2.47;;;;;;;28.26;24.06;100085.81;10209995;28;20100;-73
2022/08/12 18:38:26;;;;;;;2.72;2.33;;;;;;;28.16;24.06;100091.91;10209254;28;20050;-72
2022/08/12 18:43:29;;;;;;;1.73;1.48;;;;;;;28.07;24.36;100094.19;10204355;28;20074;-71
2022/08/12 18:48:40;;;;;;;4.47;2.38;;;;;;;27.98;24.89;100099.22;10204720;28;20059;-72
2022/08/12 18:53:44;;;;;;;6.28;5.68;;;;;;;27.89;25.17;100099.81;10196729;28;20179;-71
2022/08/12 18:59:05;;;;;;;22.05;18.05;;;;;;;27.77;26.15;100100.66;10202022;28;20050;-73
2022/08/12 19:04:11;;;;;;;20.17;18.17;;;;;;;27.72;26.09;100105.22;10204198;28;20485;-73
2022/08/12 19:09:13;;;;;;;70.47;63.25;;;;;;;27.59;26.24;100109.84;10205565;28;20055;-74
2022/08/12 19:14:26;;;;;;;36.80;33.05;;;;;;;27.49;25.95;100115.91;10204394;28;20189;-71
2022/08/12 19:19:29;;;;;;;11.73;10.73;;;;;;;27.39;26.75;100110.22;10202976;28;20088;-72
2022/08/12 19:30:04;;;;;;;9.15;6.80;;;;;;;27.25;27.24;100127.88;10204549;28;20063;-74
2022/08/12 19:35:10;;;;;;;5.18;2.70;;;;;;;27.14;27.35;100121.34;10204030;28;20059;-75
2022/08/12 19:40:33;;;;;;;9.55;8.65;;;;;;;27.07;27.41;100117.88;10205387;28;20556;-71
2022/08/12 19:45:41;;;;;;;6.25;5.65;;;;;;;26.96;27.61;100117.66;10205274;28;20573;-70
2022/08/12 19:50:55;;;;;;;8.70;7.90;;;;;;;26.92;27.85;100127.38;10208792;28;21719;-69
2022/08/12 19:55:57;;;;;;;13.80;12.45;;;;;;;26.86;27.89;100125.59;10213146;28;20078;-71
2022/08/12 20:00:59;;;;;;;24.20;21.85;;;;;;;26.78;27.78;100132.22;10217939;28;20523;-71
2022/08/12 20:06:01;;;;;;;24.88;22.63;;;;;;;26.70;27.68;100129.81;10210497;28;20106;-70
2022/08/12 20:11:09;;;;;;;31.15;28.25;;;;;;;26.63;27.65;100134.50;10213895;28;20057;-68
2022/08/12 20:16:35;;;;;;;76.57;69.25;;;;;;;26.57;28.22;100138.16;10209949;28;20783;-72
2022/08/12 20:21:57;;;;;;;52.70;47.70;;;;;;;26.49;28.14;100138.50;10190691;28;20066;-72
2022/08/12 20:26:59;;;;;;;46.25;41.60;;;;;;;26.37;28.06;100144.75;10208398;28;20054;-71
2022/08/12 20:32:04;;;;;;;35.72;32.08;;;;;;;26.29;28.08;100142.34;10209098;28;20042;-72
2022/08/12 20:37:10;;;;;;;16.40;14.82;;;;;;;26.21;28.35;100148.09;10195485;28;20233;-72
2022/08/12 20:42:12;;;;;;;10.20;9.18;;;;;;;26.14;28.79;100156.38;10209636;28;20155;-72
2022/08/12 20:47:15;;;;;;;10.15;9.15;;;;;;;26.09;28.40;100156.22;10211170;28;20477;-70
2022/08/12 20:52:21;;;;;;;10.63;9.50;;;;;;;26.04;28.61;100165.09;10216196;28;20047;-72
2022/08/12 20:57:25;;;;;;;6.55;5.55;;;;;;;25.92;29.08;100158.69;10194322;28;20054;-69
2022/08/12 21:02:46;;;;;;;6.20;4.97;;;;;;;25.83;28.92;100152.72;10209156;28;20086;-72
2022/08/12 21:07:51;;;;;;;6.70;5.88;;;;;;;25.75;29.17;100163.94;10206477;28;20531;-72
2022/08/12 21:12:53;;;;;;;9.00;6.32;;;;;;;25.66;29.44;100171.56;10076794;28;20061;-73
2022/08/12 21:18:02;;;;;;;6.45;4.90;;;;;;;25.53;30.33;100175.25;10234758;28;20062;-58
2022/08/12 21:23:24;;;;;;;4.47;2.38;;;;;;;25.33;31.03;100163.72;10235963;28;20043;-55
2022/08/12 21:28:32;;;;;;;2.35;1.90;;;;;;;25.27;30.56;100184.47;10234657;28;20047;-56
2022/08/12 21:33:37;;;;;;;2.33;2.10;;;;;;;25.20;30.94;100180.94;10235725;28;20894;-57
2022/08/12 21:39:04;;;;;;;4.18;2.88;;;;;;;25.12;30.58;100192.13;10234221;28;20057;-57
2022/08/12 21:44:27;;;;;;;3.50;2.17;;;;;;;25.01;31.10;100191.78;10233695;28;20046;-57
2022/08/12 21:49:52;;;;;;;2.35;1.60;;;;;;;24.90;31.39;100180.75;10234077;28;20058;-57
2022/08/12 21:55:06;;;;;;;2.90;1.67;;;;;;;24.89;31.01;100196.25;10233395;28;20057;-56
2022/08/12 22:00:34;;;;;;;4.80;1.30;;;;;;;24.83;31.32;100197.13;10214287;28;20094;-58
2022/08/12 22:11:00;;;;;;;2.35;1.63;;;;;;;24.72;31.57;100193.22;10234383;28;20045;-58
2022/08/12 22:16:02;;;;;;;3.53;1.80;;;;;;;24.66;31.27;100202.25;10234430;28;20062;-58
2022/08/12 22:21:03;;;;;;;2.20;1.85;;;;;;;24.65;31.11;100204.16;10234710;28;20086;-56
2022/08/12 22:26:06;;;;;;;1.88;1.30;;;;;;;24.61;31.63;100205.63;10234595;28;20137;-57
2022/08/12 22:31:08;;;;;;;12.55;2.47;;;;;;;24.59;32.18;100210.47;10234574;28;20752;-59
2022/08/12 22:36:11;;;;;;;;;;;;;;;24.53;31.40;100208.59;10234951;28;20857;-59
2022/08/12 22:51:39;;;;;;;1.27;0.80;;;;;;;24.37;31.84;100214.50;10231559;28;20051;-56
2022/08/12 22:57:00;;;;;;;2.28;0.90;;;;;;;24.31;32.34;100216.19;10231932;28;20053;-57
2022/08/12 23:02:04;;;;;;;1.38;0.63;;;;;;;24.29;32.39;100210.97;10232046;28;20118;-57
2022/08/12 23:07:05;;;;;;;2.33;0.65;;;;;;;24.24;32.62;100205.34;10229806;28;20062;-55
2022/08/12 23:12:08;;;;;;;1.77;0.93;;;;;;;24.21;32.32;100208.47;10231757;28;20424;-57
2022/08/12 23:17:22;;;;;;;2.65;0.65;;;;;;;24.14;32.95;100204.94;10230918;28;20464;-58
2022/08/12 23:22:43;;;;;;;1.63;0.47;;;;;;;24.08;33.07;100208.53;10231221;28;20133;-57
2022/08/12 23:33:32;;;;;;;0.88;0.50;;;;;;;23.97;33.01;100210.03;10229122;28;19965;-57
2022/08/12 23:38:53;;;;;;;2.45;0.60;;;;;;;23.91;32.85;100206.25;10233718;28;20089;-56
2022/08/12 23:44:04;;;;;;;2.65;0.90;;;;;;;23.89;33.31;100212.97;10233363;28;20054;-58
2022/08/12 23:49:08;;;;;;;1.42;0.45;;;;;;;23.85;33.68;100207.13;10215529;28;20047;-57
2022/08/12 23:54:30;;;;;;;1.15;0.73;;;;;;;23.76;33.43;100202.91;10230945;28;20081;-56
2022/08/12 23:59:39;;;;;;;2.50;0.73;;;;;;;23.69;33.82;100207.53;10229778;28;20053;-56
